Time;durP1;ratioP1;P1;durP2;ratioP2;P2;SDS_P1;SDS_P2;PMS_P1;PMS_P2;Temp;Humidity;BMP_temperature;BMP_pressure;BME280_temperature;BME280_humidity;BME280_pressure;Samples;Min_cycle;Max_cycle;Signal;HPM_P1;HPM_P2
2023/10/31 00:01:17;;;;;;;0.50;0.50;;;;;;;10.87;90.85;96943.13;4965625;28;20468;-76
2023/10/31 00:03:44;;;;;;;0.50;0.50;;;;;;;10.88;89.83;96942.25;4964912;28;20746;-76
2023/10/31 00:06:10;;;;;;;0.50;0.50;;;;;;;10.84;90.19;96935.13;4968173;28;20062;-76
2023/10/31 00:08:35;;;;;;;0.50;0.50;;;;;;;10.80;90.13;96944.03;4970336;28;20049;-76
2023/10/31 00:11:00;;;;;;;0.50;0.50;;;;;;;10.79;90.18;96942.25;4964565;28;20465;-77
2023/10/31 00:13:26;;;;;;;0.50;0.50;;;;;;;10.85;89.50;96947.56;4966043;28;20042;-76
2023/10/31 00:15:51;;;;;;;0.40;0.40;;;;;;;10.76;90.53;96956.47;4968488;28;20038;-76
2023/10/31 00:18:17;;;;;;;0.50;0.50;;;;;;;10.77;90.16;96954.69;4965695;28;20050;-76
2023/10/31 00:20:42;;;;;;;0.50;0.50;;;;;;;10.83;90.16;96960.03;4969113;28;20065;-76
2023/10/31 00:23:08;;;;;;;0.40;0.40;;;;;;;10.83;89.76;96954.72;4966602;28;20038;-76
2023/10/31 00:25:33;;;;;;;0.50;0.50;;;;;;;10.77;90.10;96966.25;4967780;28;20038;-77
2023/10/31 00:27:59;;;;;;;0.50;0.50;;;;;;;10.83;89.33;96962.72;4969573;28;20053;-76
2023/10/31 00:30:24;;;;;;;0.50;0.50;;;;;;;10.74;89.95;96968.94;4970827;28;20043;-77
2023/10/31 00:32:50;;;;;;;0.50;0.50;;;;;;;10.78;90.17;96984.06;4982828;28;20428;-77
2023/10/31 00:35:16;;;;;;;0.50;0.50;;;;;;;10.84;89.61;96995.59;4980119;28;20042;-77
2023/10/31 00:37:41;;;;;;;0.50;0.50;;;;;;;10.88;90.08;96990.28;4951229;28;20041;-77
2023/10/31 00:40:10;;;;;;;0.50;0.50;;;;;;;10.84;89.76;96982.28;4980110;28;20047;-76
2023/10/31 00:42:37;;;;;;;0.50;0.50;;;;;;;10.79;89.67;96982.28;4965440;28;20038;-77
2023/10/31 00:45:02;;;;;;;0.50;0.50;;;;;;;10.81;89.82;96985.81;4969213;28;20096;-77
2023/10/31 00:47:28;;;;;;;0.50;0.50;;;;;;;10.84;89.08;96985.81;4970288;28;20035;-77
2023/10/31 00:49:53;;;;;;;0.50;0.50;;;;;;;10.83;89.44;96996.47;4968638;28;20054;-78
2023/10/31 00:52:19;;;;;;;0.50;0.50;;;;;;;10.85;88.71;97000.94;4972141;28;20046;-78
2023/10/31 00:54:44;;;;;;;0.50;0.50;;;;;;;10.81;89.25;97003.59;4982438;28;20039;-77
2023/10/31 00:57:10;;;;;;;0.50;0.50;;;;;;;10.76;89.10;97000.94;4966702;28;20043;-78
2023/10/31 00:59:35;;;;;;;0.50;0.50;;;;;;;10.84;88.07;97007.16;4970568;28;20105;-78
2023/10/31 01:02:01;;;;;;;0.50;0.50;;;;;;;10.78;87.43;97005.41;4964422;28;20043;-77
2023/10/31 01:04:26;;;;;;;0.50;0.50;;;;;;;10.73;86.14;97014.25;4965715;28;20038;-78
2023/10/31 01:06:52;;;;;;;0.50;0.50;;;;;;;10.59;85.55;97011.59;4966609;28;20118;-78
2023/10/31 01:09:17;;;;;;;0.50;0.50;;;;;;;10.53;85.64;97016.91;4979609;28;20719;-78
2023/10/31 01:11:43;;;;;;;0.50;0.50;;;;;;;10.51;84.30;97018.69;4966300;28;20049;-78
2023/10/31 01:14:08;;;;;;;0.57;0.57;;;;;;;10.44;85.20;97017.81;4967091;28;20704;-78
2023/10/31 01:16:34;;;;;;;0.50;0.50;;;;;;;10.41;85.10;97023.13;4968427;28;20105;-77
2023/10/31 01:18:59;;;;;;;0.50;0.50;;;;;;;10.39;83.93;97029.31;4968975;28;20039;-77
2023/10/31 01:21:25;;;;;;;0.50;0.50;;;;;;;10.30;84.16;97022.22;4967014;28;20088;-77
2023/10/31 01:23:50;;;;;;;0.50;0.50;;;;;;;10.21;83.85;97027.47;4970346;28;20042;-77
2023/10/31 01:26:17;;;;;;;0.60;0.60;;;;;;;10.14;83.98;97023.88;4966763;28;20039;-77
2023/10/31 01:28:42;;;;;;;0.50;0.50;;;;;;;9.97;84.67;97037.16;4967352;28;20042;-78
2023/10/31 01:31:09;;;;;;;0.60;0.60;;;;;;;10.02;84.12;97031.84;4968490;28;20497;-77
2023/10/31 01:33:35;;;;;;;0.55;0.55;;;;;;;9.85;84.94;97034.44;4983651;28;20039;-78
2023/10/31 01:36:00;;;;;;;0.60;0.60;;;;;;;9.91;83.87;97033.56;4966815;28;20038;-77
2023/10/31 01:38:26;;;;;;;0.60;0.60;;;;;;;9.89;84.82;97041.56;4968186;28;20034;-79
2023/10/31 01:40:51;;;;;;;0.60;0.60;;;;;;;9.93;83.78;97045.13;4965169;28;20547;-79
2023/10/31 01:43:34;;;;;;;0.60;0.60;;;;;;;9.83;84.16;97053.97;4969611;28;20047;-79
2023/10/31 01:46:00;;;;;;;0.50;0.50;;;;;;;9.65;84.75;97049.41;4971596;28;20053;-77
2023/10/31 01:48:29;;;;;;;0.50;0.50;;;;;;;9.69;84.30;97061.88;4973516;28;20043;-77
2023/10/31 01:50:55;;;;;;;0.60;0.60;;;;;;;9.51;84.78;97060.88;4987859;28;20070;-77
2023/10/31 01:53:23;;;;;;;0.60;0.60;;;;;;;9.51;84.64;97047.56;4971880;28;20039;-77
2023/10/31 01:55:48;;;;;;;0.50;0.50;;;;;;;9.38;85.58;97066.09;4987402;28;20050;-78
2023/10/31 01:58:14;;;;;;;0.50;0.50;;;;;;;9.33;85.71;97071.38;4969914;28;20046;-77
2023/10/31 02:00:43;;;;;;;0.52;0.52;;;;;;;9.26;86.11;97074.91;4969349;28;20735;-77
2023/10/31 02:03:09;;;;;;;0.50;0.50;;;;;;;9.10;86.79;97080.97;4967460;28;20109;-77
2023/10/31 02:05:35;;;;;;;0.60;0.60;;;;;;;9.04;87.29;97091.56;4971044;28;20051;-77
2023/10/31 02:08:05;;;;;;;0.60;0.60;;;;;;;8.89;87.69;97090.53;4971204;28;20046;-77
2023/10/31 02:10:30;;;;;;;0.60;0.60;;;;;;;9.07;87.33;97088.94;4971259;28;20027;-77
2023/10/31 02:12:57;;;;;;;0.60;0.60;;;;;;;9.15;86.84;97092.53;4970346;28;20042;-77
2023/10/31 02:15:22;;;;;;;0.50;0.50;;;;;;;9.16;86.60;97095.22;4968460;28;20129;-77
2023/10/31 02:17:49;;;;;;;0.60;0.60;;;;;;;9.23;86.38;97096.16;4952284;28;20073;-78
2023/10/31 02:20:14;;;;;;;0.50;0.50;;;;;;;9.31;85.48;97098.88;4985069;28;20046;-78
2023/10/31 02:22:40;;;;;;;0.60;0.60;;;;;;;9.29;85.85;97104.19;4969828;28;20046;-77
2023/10/31 02:25:18;;;;;;;0.60;0.60;;;;;;;9.32;85.71;97108.66;4971610;28;20042;-76
2023/10/31 02:27:44;;;;;;;0.50;0.50;;;;;;;9.41;85.13;97106.94;4966920;28;20547;-79
2023/10/31 02:30:10;;;;;;;0.50;0.50;;;;;;;9.33;85.45;97105.97;4984774;28;20027;-77
2023/10/31 02:32:35;;;;;;;0.50;0.50;;;;;;;9.48;85.60;97106.09;4955794;28;20058;-78
2023/10/31 02:35:01;;;;;;;0.60;0.60;;;;;;;9.49;85.05;97099.91;4986236;28;20049;-77
2023/10/31 02:37:26;;;;;;;0.60;0.60;;;;;;;9.41;85.46;97098.97;4965336;28;20043;-77
2023/10/31 02:39:51;;;;;;;0.50;0.50;;;;;;;9.38;85.07;97103.34;4973568;28;20035;-77
2023/10/31 02:42:17;;;;;;;0.50;0.50;;;;;;;9.46;84.23;97104.31;4973972;28;20331;-78
2023/10/31 02:44:42;;;;;;;0.50;0.50;;;;;;;9.16;86.14;97107.63;4972620;28;20042;-79
2023/10/31 02:47:08;;;;;;;0.50;0.50;;;;;;;9.11;86.08;97110.25;4970572;28;20038;-78
2023/10/31 02:49:35;;;;;;;0.50;0.50;;;;;;;8.94;86.98;97110.09;4968469;28;20051;-78
2023/10/31 02:52:00;;;;;;;0.50;0.50;;;;;;;8.91;86.45;97107.44;4984061;28;20038;-78
2023/10/31 02:54:26;;;;;;;0.50;0.50;;;;;;;8.97;86.10;97112.78;4972410;28;21902;-78
2023/10/31 02:56:51;;;;;;;0.50;0.50;;;;;;;8.99;85.84;97121.66;4974604;28;20031;-78
2023/10/31 02:59:16;;;;;;;0.50;0.50;;;;;;;8.78;86.96;97116.16;4957504;28;20034;-77
2023/10/31 03:01:42;;;;;;;0.50;0.50;;;;;;;8.67;87.74;97124.03;4970892;28;20061;-78
2023/10/31 03:04:07;;;;;;;0.60;0.60;;;;;;;8.62;88.82;97123.06;4971363;28;20046;-77
2023/10/31 03:06:33;;;;;;;0.50;0.50;;;;;;;8.36;89.59;97136.06;4973523;28;20090;-77
2023/10/31 03:08:58;;;;;;;0.60;0.60;;;;;;;8.24;90.18;97133.22;4971432;28;20034;-77
2023/10/31 03:11:25;;;;;;;0.50;0.50;;;;;;;8.24;89.36;97125.25;4970015;28;20693;-78
2023/10/31 03:13:52;;;;;;;0.60;0.60;;;;;;;8.33;89.68;97122.69;4970246;28;20121;-77
2023/10/31 03:16:17;;;;;;;;;;;;;;;8.21;91.06;97125.22;4982861;28;20051;-77
2023/10/31 03:18:43;;;;;;;0.60;0.60;;;;;;;8.07;91.23;97129.47;4969857;28;19944;-77
2023/10/31 03:21:08;;;;;;;0.50;0.50;;;;;;;8.12;91.56;97130.41;4969294;28;20806;-77
2023/10/31 03:23:34;;;;;;;0.60;0.60;;;;;;;7.88;91.75;97139.81;4972842;28;20049;-77
2023/10/31 03:25:59;;;;;;;0.60;0.60;;;;;;;8.05;92.59;97133.84;4969962;28;20604;-77
2023/10/31 03:28:25;;;;;;;0.60;0.60;;;;;;;8.03;92.51;97143.56;4950646;28;20053;-77
2023/10/31 03:30:51;;;;;;;0.52;0.52;;;;;;;7.87;92.59;97142.47;4968707;28;20042;-77
2023/10/31 03:33:17;;;;;;;0.60;0.60;;;;;;;7.84;93.16;97140.66;4969895;28;20049;-77
2023/10/31 03:35:43;;;;;;;0.60;0.60;;;;;;;7.84;93.40;97150.38;4969693;28;20039;-77
2023/10/31 03:38:08;;;;;;;0.60;0.60;;;;;;;7.80;93.43;97140.59;4970292;28;20057;-77
2023/10/31 03:40:34;;;;;;;0.60;0.60;;;;;;;7.70;93.39;97152.84;4967464;28;20042;-80
2023/10/31 03:42:59;;;;;;;0.60;0.60;;;;;;;7.78;93.63;97148.53;4971113;28;20153;-77
2023/10/31 03:45:25;;;;;;;0.60;0.60;;;;;;;7.76;93.77;97152.94;4986042;28;20054;-77
2023/10/31 03:47:51;;;;;;;0.60;0.60;;;;;;;7.68;93.70;97151.94;4966500;28;20116;-76
2023/10/31 03:50:16;;;;;;;0.60;0.60;;;;;;;7.90;93.64;97151.34;4970049;28;20443;-77
2023/10/31 03:52:42;;;;;;;0.60;0.60;;;;;;;8.01;93.51;97158.59;4969494;28;20042;-78
2023/10/31 03:55:08;;;;;;;0.60;0.60;;;;;;;8.10;93.11;97158.72;4983239;28;20559;-78
2023/10/31 03:57:33;;;;;;;0.60;0.60;;;;;;;8.21;92.95;97157.97;4968238;28;20034;-78
2023/10/31 03:59:59;;;;;;;0.52;0.52;;;;;;;8.22;92.64;97161.53;4968384;28;20697;-78
2023/10/31 04:02:24;;;;;;;0.60;0.60;;;;;;;8.40;91.79;97159.16;4965806;28;20086;-78
2023/10/31 04:04:50;;;;;;;0.60;0.60;;;;;;;8.50;91.82;97156.59;4971374;28;20046;-77
2023/10/31 04:07:15;;;;;;;0.60;0.60;;;;;;;8.84;90.51;97161.41;4967288;28;20038;-77
2023/10/31 04:09:41;;;;;;;0.60;0.60;;;;;;;8.80;89.91;97164.91;4968148;28;20397;-78
2023/10/31 04:12:07;;;;;;;0.50;0.50;;;;;;;8.69;90.27;97172.78;4967212;28;20058;-78
2023/10/31 04:14:32;;;;;;;0.60;0.60;;;;;;;8.71;90.24;97176.31;4968268;28;20045;-77
2023/10/31 04:16:57;;;;;;;0.60;0.60;;;;;;;8.76;89.56;97173.72;4968097;28;20034;-78
2023/10/31 04:19:23;;;;;;;0.55;0.55;;;;;;;8.65;90.03;97181.59;4963379;28;20456;-77
2023/10/31 04:21:48;;;;;;;0.57;0.57;;;;;;;8.64;89.61;97179.81;4968727;28;20035;-77
2023/10/31 04:24:14;;;;;;;0.50;0.50;;;;;;;8.74;89.64;97183.47;4965778;28;20045;-79
2023/10/31 04:26:41;;;;;;;0.50;0.50;;;;;;;8.72;89.34;97179.91;4969033;28;20039;-78
2023/10/31 04:29:06;;;;;;;0.50;0.50;;;;;;;8.68;89.51;97189.59;4980158;28;20038;-79
2023/10/31 04:31:32;;;;;;;0.57;0.57;;;;;;;8.85;89.36;97189.78;4967774;28;21124;-79
2023/10/31 04:33:57;;;;;;;0.52;0.52;;;;;;;8.83;88.50;97186.22;4968769;28;20047;-79
2023/10/31 04:36:24;;;;;;;0.50;0.50;;;;;;;8.86;88.88;97194.25;4967092;28;20066;-79
2023/10/31 04:38:49;;;;;;;0.50;0.50;;;;;;;8.82;88.44;97186.22;4982070;28;20038;-79
2023/10/31 04:41:14;;;;;;;0.50;0.50;;;;;;;9.05;87.05;97179.34;4966611;28;20066;-79
2023/10/31 04:43:41;;;;;;;0.50;0.50;;;;;;;9.11;86.18;97187.41;4970583;28;20039;-79
2023/10/31 04:46:07;;;;;;;0.60;0.60;;;;;;;9.01;86.27;97193.53;4967632;28;20054;-78
2023/10/31 04:48:33;;;;;;;0.50;0.50;;;;;;;8.98;86.55;97188.16;4966122;28;20051;-78
2023/10/31 04:50:59;;;;;;;0.50;0.50;;;;;;;9.09;86.09;97196.25;4971154;28;20118;-79
2023/10/31 04:53:24;;;;;;;0.50;0.50;;;;;;;9.07;85.34;97200.66;4967034;28;20046;-78
2023/10/31 04:55:50;;;;;;;0.60;0.60;;;;;;;8.99;86.17;97203.22;4965235;28;20155;-79
2023/10/31 04:58:15;;;;;;;0.50;0.50;;;;;;;9.14;85.25;97208.72;4966952;28;20507;-79
2023/10/31 05:00:41;;;;;;;0.50;0.50;;;;;;;9.10;85.15;97198.03;4971676;28;20480;-79
2023/10/31 05:03:06;;;;;;;0.57;0.57;;;;;;;9.00;85.32;97199.69;4963933;28;20070;-79
2023/10/31 05:05:32;;;;;;;0.60;0.60;;;;;;;9.09;84.01;97198.91;4970508;28;20057;-78
2023/10/31 05:07:58;;;;;;;0.60;0.60;;;;;;;9.15;84.02;97196.28;4974344;28;20042;-79
2023/10/31 05:10:25;;;;;;;0.50;0.50;;;;;;;9.17;83.47;97202.53;4976068;28;20047;-78
2023/10/31 05:12:51;;;;;;;0.50;0.50;;;;;;;9.20;82.79;97197.25;4974666;28;20528;-77
2023/10/31 05:15:17;;;;;;;0.60;0.60;;;;;;;9.20;82.93;97199.91;4982713;28;20043;-78
2023/10/31 05:17:42;;;;;;;0.60;0.60;;;;;;;9.19;83.64;97203.44;4972669;28;20035;-77
2023/10/31 05:20:09;;;;;;;0.60;0.60;;;;;;;9.21;83.55;97207.91;4986982;28;20046;-79
2023/10/31 05:22:35;;;;;;;0.50;0.50;;;;;;;9.16;83.82;97219.38;4964903;28;20504;-79
2023/10/31 05:25:00;;;;;;;0.60;0.60;;;;;;;9.03;84.44;97217.47;4970673;28;20129;-78
2023/10/31 05:27:26;;;;;;;0.60;0.60;;;;;;;9.00;85.22;97213.88;4971896;28;20039;-79
2023/10/31 05:29:51;;;;;;;0.60;0.60;;;;;;;8.76;86.70;97212.72;4975654;28;20093;-77
2023/10/31 05:32:17;;;;;;;0.60;0.60;;;;;;;8.79;86.54;97208.34;4969120;28;20038;-77
2023/10/31 05:34:42;;;;;;;0.60;0.60;;;;;;;8.90;85.23;97217.31;4974069;28;20061;-78
2023/10/31 05:37:08;;;;;;;0.60;0.60;;;;;;;8.88;85.47;97211.09;4977046;28;20451;-77
2023/10/31 05:39:33;;;;;;;0.60;0.60;;;;;;;9.04;84.52;97214.81;4977946;28;20050;-77
2023/10/31 05:41:59;;;;;;;0.70;0.70;;;;;;;8.92;83.95;97214.69;4977689;28;20058;-78
2023/10/31 05:44:24;;;;;;;0.60;0.60;;;;;;;8.88;83.51;97219.09;4976021;28;20053;-78
2023/10/31 05:46:50;;;;;;;0.60;0.60;;;;;;;8.88;83.73;97215.53;4975810;28;20145;-77
2023/10/31 05:49:16;;;;;;;0.50;0.50;;;;;;;8.91;82.72;97221.78;4972811;28;20057;-78
2023/10/31 05:51:41;;;;;;;0.65;0.65;;;;;;;8.90;82.05;97221.75;4974148;28;20058;-78
2023/10/31 05:54:08;;;;;;;0.60;0.60;;;;;;;8.99;81.63;97225.41;4976291;28;20043;-77
2023/10/31 05:56:33;;;;;;;0.60;0.60;;;;;;;9.11;80.56;97231.75;4974816;28;20099;-78
2023/10/31 05:58:59;;;;;;;0.60;0.60;;;;;;;8.91;81.56;97235.09;4973761;28;20027;-79
2023/10/31 06:01:24;;;;;;;0.60;0.60;;;;;;;8.78;82.36;97243.78;4969975;28;20042;-78
2023/10/31 06:03:49;;;;;;;0.55;0.55;;;;;;;8.78;82.88;97238.47;4967465;28;20789;-78
2023/10/31 06:06:15;;;;;;;0.60;0.60;;;;;;;8.32;84.59;97248.44;4971250;28;20054;-78
2023/10/31 06:08:41;;;;;;;0.60;0.60;;;;;;;8.51;84.35;97256.72;4969907;28;20042;-79
2023/10/31 06:11:07;;;;;;;0.60;0.60;;;;;;;8.33;85.50;97254.66;4973281;28;20411;-79
2023/10/31 06:13:33;;;;;;;0.60;0.60;;;;;;;8.39;85.24;97255.69;4965671;28;20488;-78
2023/10/31 06:16:00;;;;;;;0.60;0.60;;;;;;;8.63;84.03;97259.56;4966130;28;20440;-79
2023/10/31 06:18:26;;;;;;;0.60;0.60;;;;;;;8.71;83.87;97268.50;4962853;28;20041;-79
2023/10/31 06:20:52;;;;;;;0.60;0.60;;;;;;;8.72;83.61;97281.84;4969075;28;20052;-78
2023/10/31 06:23:18;;;;;;;0.60;0.60;;;;;;;8.75;83.57;97283.63;4972813;28;20039;-78
2023/10/31 06:25:43;;;;;;;0.60;0.60;;;;;;;8.87;82.74;97280.25;4972053;28;20030;-78
2023/10/31 06:28:09;;;;;;;0.60;0.60;;;;;;;8.80;83.39;97283.69;4972011;28;20105;-78
2023/10/31 06:30:34;;;;;;;0.50;0.50;;;;;;;8.91;83.38;97290.94;4969672;28;20049;-80
2023/10/31 06:33:00;;;;;;;0.60;0.60;;;;;;;9.11;81.92;97295.59;4976217;28;20054;-79
2023/10/31 06:35:26;;;;;;;0.60;0.60;;;;;;;9.16;81.81;97299.22;4980512;28;20047;-79
2023/10/31 06:37:54;;;;;;;0.70;0.70;;;;;;;9.28;81.15;97296.66;4980799;28;20540;-79
2023/10/31 06:40:19;;;;;;;0.60;0.60;;;;;;;9.24;81.35;97302.81;4975302;28;20046;-79
2023/10/31 06:42:45;;;;;;;0.60;0.60;;;;;;;9.29;81.16;97301.13;4979202;28;20057;-80
2023/10/31 06:45:10;;;;;;;0.60;0.60;;;;;;;9.25;81.23;97307.31;4969309;28;20035;-80
2023/10/31 06:47:36;;;;;;;0.50;0.50;;;;;;;9.18;82.53;97310.75;4949524;28;20100;-79
2023/10/31 06:50:02;;;;;;;0.50;0.50;;;;;;;9.11;82.54;97324.88;4974089;28;20050;-79
2023/10/31 06:52:28;;;;;;;0.60;0.60;;;;;;;9.10;82.81;97315.09;4970368;28;20034;-78
2023/10/31 06:54:53;;;;;;;0.60;0.60;;;;;;;9.20;82.16;97322.31;4970712;28;20045;-77
2023/10/31 06:57:19;;;;;;;0.50;0.50;;;;;;;9.50;81.17;97325.31;4965597;28;20042;-79
2023/10/31 06:59:44;;;;;;;0.60;0.60;;;;;;;9.63;79.92;97329.00;4984812;28;20045;-77
2023/10/31 07:02:10;;;;;;;0.60;0.60;;;;;;;9.64;79.44;97327.25;4974205;28;20038;-79
2023/10/31 07:04:35;;;;;;;0.60;0.60;;;;;;;9.69;79.45;97322.84;4975170;28;20085;-78
2023/10/31 07:07:01;;;;;;;0.52;0.52;;;;;;;9.67;79.24;97330.81;4973391;28;20181;-78
2023/10/31 07:09:27;;;;;;;0.60;0.60;;;;;;;9.83;77.70;97331.88;4975640;28;20042;-78
2023/10/31 07:11:52;;;;;;;0.60;0.60;;;;;;;9.83;78.10;97321.22;4976815;28;20169;-79
2023/10/31 07:14:18;;;;;;;0.60;0.60;;;;;;;9.79;78.12;97332.72;4987727;28;20027;-78
2023/10/31 07:16:44;;;;;;;0.60;0.60;;;;;;;9.89;76.65;97336.34;4978637;28;20035;-78
2023/10/31 07:19:12;;;;;;;0.60;0.60;;;;;;;9.99;75.92;97333.78;4973456;28;20054;-79
2023/10/31 07:21:38;;;;;;;0.65;0.65;;;;;;;10.03;75.52;97334.72;4975410;28;20497;-79
2023/10/31 07:24:03;;;;;;;0.60;0.60;;;;;;;9.97;76.19;97351.53;4969697;28;20050;-79
2023/10/31 07:26:29;;;;;;;0.60;0.60;;;;;;;10.09;75.59;97345.41;4974515;28;20088;-79
2023/10/31 07:28:54;;;;;;;0.60;0.60;;;;;;;10.07;75.51;97354.28;4973526;28;20042;-79
2023/10/31 07:31:20;;;;;;;0.60;0.60;;;;;;;10.11;74.51;97350.75;4974550;28;20117;-78
2023/10/31 07:33:45;;;;;;;0.60;0.60;;;;;;;10.15;74.74;97352.56;4971694;28;20479;-79
2023/10/31 07:36:11;;;;;;;0.60;0.60;;;;;;;10.14;74.77;97350.78;4973887;28;20454;-79
2023/10/31 07:38:37;;;;;;;0.60;0.60;;;;;;;10.27;74.41;97345.59;4974740;28;20042;-79
2023/10/31 07:41:02;;;;;;;0.60;0.60;;;;;;;10.22;74.98;97357.97;4974746;28;20029;-78
2023/10/31 07:43:28;;;;;;;0.60;0.60;;;;;;;10.28;74.77;97359.81;4976032;28;20038;-79
2023/10/31 07:45:53;;;;;;;0.50;0.50;;;;;;;10.29;74.92;97353.59;4988687;28;20046;-79
2023/10/31 07:48:19;;;;;;;0.60;0.60;;;;;;;10.38;75.37;97359.00;4976874;28;20037;-79
2023/10/31 07:50:44;;;;;;;0.50;0.50;;;;;;;10.38;75.41;97364.34;4975827;28;20043;-79
2023/10/31 07:53:10;;;;;;;0.57;0.57;;;;;;;10.26;76.67;97374.91;4974997;28;20105;-79
2023/10/31 07:55:35;;;;;;;0.60;0.60;;;;;;;10.34;75.10;97367.84;4974000;28;20046;-79
2023/10/31 07:58:01;;;;;;;0.50;0.50;;;;;;;10.33;75.47;97371.41;4970540;28;20404;-79
2023/10/31 08:00:27;;;;;;;0.57;0.57;;;;;;;10.46;74.71;97383.06;4971583;28;20607;-79
2023/10/31 08:02:52;;;;;;;0.50;0.50;;;;;;;10.64;74.22;97379.66;4971614;28;20038;-79
2023/10/31 08:05:18;;;;;;;0.60;0.60;;;;;;;10.45;74.25;97376.84;4975095;28;20587;-79
2023/10/31 08:07:43;;;;;;;0.50;0.50;;;;;;;10.42;74.79;97389.25;4971040;28;20034;-78
2023/10/31 08:10:09;;;;;;;0.50;0.50;;;;;;;10.50;74.27;97383.13;4972405;28;20531;-79
2023/10/31 08:12:35;;;;;;;0.47;0.47;;;;;;;10.47;74.61;97395.53;4973205;28;20045;-79
2023/10/31 08:15:01;;;;;;;0.60;0.60;;;;;;;10.66;74.13;97392.13;4972813;28;20080;-79
2023/10/31 08:17:26;;;;;;;0.55;0.55;;;;;;;10.71;73.63;97394.81;4975703;28;20225;-79
2023/10/31 08:19:52;;;;;;;0.60;0.60;;;;;;;10.89;73.10;97388.72;4970596;28;20035;-79
2023/10/31 08:22:17;;;;;;;0.50;0.50;;;;;;;10.92;73.13;97391.38;4971492;28;20034;-79
2023/10/31 08:24:43;;;;;;;0.50;0.50;;;;;;;10.84;73.26;97394.03;4973323;28;20046;-79
2023/10/31 08:27:10;;;;;;;0.50;0.50;;;;;;;11.19;73.07;97401.34;4971576;28;20182;-81
2023/10/31 08:29:35;;;;;;;0.60;0.60;;;;;;;11.40;71.57;97398.78;4977649;28;20686;-80
2023/10/31 08:32:01;;;;;;;0.50;0.50;;;;;;;11.28;71.64;97414.72;4972178;28;20039;-79
2023/10/31 08:34:27;;;;;;;0.60;0.60;;;;;;;11.38;70.49;97416.56;4975070;28;20259;-81
2023/10/31 08:36:52;;;;;;;0.50;0.50;;;;;;;11.45;70.27;97421.06;4975213;28;20119;-81
2023/10/31 08:39:18;;;;;;;0.50;0.50;;;;;;;11.55;70.41;97420.22;4968780;28;20043;-79
2023/10/31 08:41:57;;;;;;;0.50;0.50;;;;;;;11.54;70.83;97422.84;4975568;28;20076;-79
2023/10/31 08:44:22;;;;;;;0.50;0.50;;;;;;;11.80;69.98;97428.31;4975450;28;20038;-79
2023/10/31 08:46:48;;;;;;;0.57;0.57;;;;;;;11.82;69.41;97421.22;4975697;28;20049;-79
2023/10/31 08:49:15;;;;;;;0.57;0.57;;;;;;;12.06;69.33;97425.72;4970291;28;20039;-78
2023/10/31 08:51:41;;;;;;;0.60;0.60;;;;;;;11.80;69.20;97434.53;4969532;28;20361;-78
2023/10/31 08:54:06;;;;;;;0.50;0.50;;;;;;;11.86;69.47;97430.16;4969512;28;20047;-80
2023/10/31 08:56:32;;;;;;;0.50;0.50;;;;;;;12.26;68.89;97423.09;4978951;28;20385;-79
2023/10/31 08:58:58;;;;;;;0.50;0.50;;;;;;;12.31;68.21;97426.66;4978240;28;20034;-79
2023/10/31 09:01:26;;;;;;;0.60;0.60;;;;;;;12.20;69.30;97433.78;4980856;28;20123;-79
2023/10/31 09:03:51;;;;;;;;;;;;;;;12.19;68.50;97432.91;4978655;28;20121;-79
2023/10/31 09:06:17;;;;;;;0.50;0.50;;;;;;;12.47;68.27;97425.81;4973474;28;20392;-78
2023/10/31 09:08:42;;;;;;;0.50;0.50;;;;;;;12.54;67.15;97422.22;4977554;28;20030;-80
2023/10/31 09:11:07;;;;;;;0.50;0.50;;;;;;;12.76;66.39;97433.84;4975902;28;20046;-79
2023/10/31 09:13:33;;;;;;;0.50;0.50;;;;;;;12.77;65.43;97427.59;4977095;28;20034;-81
2023/10/31 09:16:00;;;;;;;0.50;0.50;;;;;;;12.91;65.88;97432.94;4974211;28;20042;-79
2023/10/31 09:18:25;;;;;;;0.50;0.50;;;;;;;13.26;63.69;97429.31;4973748;28;20042;-79
2023/10/31 09:20:51;;;;;;;0.50;0.50;;;;;;;12.64;66.14;97424.91;4979027;28;20176;-79
2023/10/31 09:23:17;;;;;;;0.50;0.50;;;;;;;13.59;63.77;97429.22;4976850;28;20476;-79
2023/10/31 09:25:43;;;;;;;0.50;0.50;;;;;;;13.96;62.83;97422.81;4979735;28;20038;-79
2023/10/31 09:28:09;;;;;;;0.40;0.40;;;;;;;14.06;61.07;97419.19;4970569;28;20485;-78
2023/10/31 09:30:34;;;;;;;0.40;0.40;;;;;;;13.96;61.61;97423.72;4967338;28;20045;-80
2023/10/31 09:33:00;;;;;;;0.50;0.50;;;;;;;13.93;61.76;97421.03;4975431;28;20514;-78
2023/10/31 09:35:26;;;;;;;0.40;0.40;;;;;;;14.06;60.47;97416.50;4974356;28;20638;-78
2023/10/31 09:37:52;;;;;;;0.40;0.40;;;;;;;14.04;60.96;97418.31;4972725;28;20129;-80
2023/10/31 09:40:17;;;;;;;0.40;0.40;;;;;;;13.79;60.80;97417.53;4973783;28;20047;-80
2023/10/31 09:42:47;;;;;;;0.40;0.40;;;;;;;13.60;61.73;97414.91;4975967;28;20116;-77
2023/10/31 09:45:13;;;;;;;0.40;0.40;;;;;;;13.77;62.52;97414.84;4969992;28;20062;-80
2023/10/31 09:47:40;;;;;;;0.50;0.50;;;;;;;13.86;62.20;97409.47;4977977;28;20031;-81
2023/10/31 09:50:08;;;;;;;0.45;0.45;;;;;;;13.79;61.79;97418.41;4975690;28;20050;-80
2023/10/31 09:52:35;;;;;;;0.45;0.45;;;;;;;13.77;61.91;97408.63;4979089;28;20046;-80
2023/10/31 09:55:01;;;;;;;0.50;0.50;;;;;;;14.22;61.42;97411.91;4981488;28;20034;-78
2023/10/31 09:57:27;;;;;;;0.40;0.40;;;;;;;14.11;61.60;97415.56;4980522;28;20042;-78
2023/10/31 09:59:52;;;;;;;0.43;0.43;;;;;;;13.88;61.43;97416.59;4979699;28;20654;-81
2023/10/31 10:02:18;;;;;;;0.40;0.40;;;;;;;13.77;61.87;97416.66;4983097;28;20373;-83
2023/10/31 10:04:43;;;;;;;0.40;0.40;;;;;;;13.18;62.42;97425.75;4982050;28;20058;-81
2023/10/31 10:07:13;;;;;;;0.50;0.50;;;;;;;12.87;63.67;97420.44;4978865;28;20104;-80
2023/10/31 10:09:39;;;;;;;0.50;0.50;;;;;;;13.05;64.18;97417.75;4974024;28;20047;-82
2023/10/31 10:12:05;;;;;;;0.50;0.50;;;;;;;13.45;63.39;97414.09;4978024;28;20046;-79
2023/10/31 10:14:31;;;;;;;0.40;0.40;;;;;;;13.57;62.74;97412.28;4978158;28;20103;-78
2023/10/31 10:16:57;;;;;;;0.40;0.40;;;;;;;13.33;62.35;97421.28;4975186;28;20117;-80
2023/10/31 10:19:23;;;;;;;0.40;0.40;;;;;;;13.12;61.58;97421.28;4978287;28;20436;-81
2023/10/31 10:21:55;;;;;;;0.50;0.50;;;;;;;12.85;63.41;97427.59;4977208;28;20050;-81
2023/10/31 10:24:22;;;;;;;0.40;0.40;;;;;;;12.73;64.34;97432.94;4977490;28;20054;-81
2023/10/31 10:26:48;;;;;;;0.40;0.40;;;;;;;12.84;64.71;97436.53;4976055;28;20452;-81
2023/10/31 10:29:15;;;;;;;0.40;0.40;;;;;;;12.80;64.88;97438.31;4976548;28;20054;-79
2023/10/31 10:31:40;;;;;;;0.50;0.50;;;;;;;13.02;64.17;97439.16;4973283;28;20062;-81
2023/10/31 10:34:07;;;;;;;0.50;0.50;;;;;;;13.18;63.10;97432.00;4974664;28;20053;-80
2023/10/31 10:36:33;;;;;;;0.40;0.40;;;;;;;13.12;64.12;97439.13;4955607;28;20054;-81
2023/10/31 10:38:59;;;;;;;0.40;0.40;;;;;;;13.06;63.25;97446.28;4975621;28;20039;-80
2023/10/31 10:41:26;;;;;;;0.47;0.47;;;;;;;13.31;63.85;97446.28;4974303;28;20039;-77
2023/10/31 10:44:05;;;;;;;0.50;0.50;;;;;;;13.30;63.04;97452.53;4982219;28;20065;-79
2023/10/31 10:46:34;;;;;;;0.40;0.40;;;;;;;13.30;62.41;97452.53;4979241;28;20113;-80
2023/10/31 10:49:05;;;;;;;0.40;0.40;;;;;;;12.99;63.72;97447.22;4974547;28;20053;-80
2023/10/31 10:51:46;;;;;;;0.40;0.40;;;;;;;13.06;63.41;97453.44;4974541;28;20050;-81
2023/10/31 10:54:18;;;;;;;0.40;0.40;;;;;;;13.07;63.27;97450.75;4976913;28;20126;-81
2023/10/31 10:56:56;;;;;;;0.40;0.40;;;;;;;13.03;63.12;97448.06;4973264;28;20037;-81
2023/10/31 10:59:38;;;;;;;0.40;0.40;;;;;;;13.15;62.90;97455.22;4972467;28;20034;-81
2023/10/31 11:36:08;;;;;;;0.47;0.47;;;;;;;12.88;64.76;97466.84;4970193;28;20104;-79
2023/10/31 11:38:38;;;;;;;0.50;0.50;;;;;;;12.72;65.33;97468.63;4972896;28;20156;-79
2023/10/31 11:41:04;;;;;;;0.40;0.40;;;;;;;12.83;65.05;97473.06;4969249;28;20505;-79
2023/10/31 11:43:39;;;;;;;0.50;0.50;;;;;;;12.95;64.66;97477.56;4972545;28;20042;-80
2023/10/31 11:46:04;;;;;;;0.43;0.43;;;;;;;12.88;65.16;97478.44;4972443;28;20111;-79
2023/10/31 11:48:47;;;;;;;0.50;0.50;;;;;;;12.97;64.97;97481.09;4971590;28;20035;-79
2023/10/31 11:51:13;;;;;;;0.40;0.40;;;;;;;13.24;64.27;97482.91;4970261;28;20105;-80
2023/10/31 11:53:39;;;;;;;0.40;0.40;;;;;;;13.21;64.61;97487.34;4972535;28;20097;-80
2023/10/31 11:56:06;;;;;;;0.40;0.40;;;;;;;13.21;64.54;97487.34;4971111;28;20070;-80
2023/10/31 11:58:31;;;;;;;0.40;0.40;;;;;;;13.53;63.33;97482.84;4974300;28;20552;-79
2023/10/31 12:01:08;;;;;;;0.40;0.40;;;;;;;13.53;63.05;97488.22;4971062;28;20667;-81
2023/10/31 12:03:52;;;;;;;;;;;;;;;13.77;62.88;97484.56;4971488;28;20042;-78
2023/10/31 12:06:20;;;;;;;0.40;0.40;;;;;;;14.06;62.26;97495.16;4970303;28;19918;-78
2023/10/31 12:08:49;;;;;;;0.50;0.50;;;;;;;14.14;61.98;97483.53;4969172;28;20504;-79